Página principal
METAR-TAF:

METAR-TAF

Aeroportos :

Recife, Pernambuco, Brasil

Aeroporto Internacional do Recife

latitude: 08-08S, longitude: 034-55W, altura: 19 m

Observação actual do tempo

O boletim foi feito há 53 minutos, às 11:00 UTC
Vento 8 kt de es-sudeste
Temperatura 26°C
Humidade 84%
Pressão 1012 hPa
Visibilidade: 3000 m
Nuvens dispersasa uma altura de 1700 ft
Nuvens fragmentadasa uma altura de 2000 ft
chuva fraca

METAR: SBRF 241100Z 11008KT 3000 -RA SCT017 BKN020 26/23 Q1012

Hora: 08:53 (11:53 UTC)

Previsão

O boletim foi feito há 1 hora e 53 minutos, às 10:00 UTC
Previsão válida de 24 às 12 UTC a 25 às 12 UTC
Vento 8 kt de es-sudeste
Visibilidade: 9000 m
Nuvens dispersasa uma altura de 2000 ft

TAF: SBRF 241000Z 2412/2512 11008KT 9000 SCT020 TX29/2415Z TN25/2509Z RMK PEU

Observações e previsões do tempo de mais de 4000 aeroportos (mensagens METAR e TAF).

As estações disponíveis são os pontos amarelos e vermelhos sobre o mapa.

Mova o rato sobre o mapa para ver o nome da estação.

Depois clique no ponto para visualizar as observações e previsões meteorológicas.

Para alterar o mapa : clique nos botões verdes com uma cruz preta para aumentar o zoom; no botão verde com uma pitada de zoom; ou nas setas verdes para mapas adjacentes.


METAR-TAF: